createdAt,value
2024-01-09T00:01:14.433Z,87.74
2024-01-09T00:03:41.099Z,87.86
2024-01-09T00:06:07.794Z,87.24
2024-01-09T00:08:34.550Z,87.55
2024-01-09T00:11:01.476Z,87.42
2024-01-09T00:13:28.113Z,87.42
2024-01-09T00:15:54.740Z,86.95
2024-01-09T00:18:21.489Z,86.74
2024-01-09T00:20:48.321Z,86.45
2024-01-09T00:23:18.031Z,86.64
2024-01-09T00:25:48.944Z,86.35
2024-01-09T00:28:15.992Z,86.39
2024-01-09T00:30:42.904Z,86.50
2024-01-09T00:33:12.494Z,86.05
2024-01-09T00:35:42.004Z,86.21
2024-01-09T00:38:11.171Z,86.04
2024-01-09T00:40:46.517Z,86.01
2024-01-09T00:43:17.857Z,85.94
2024-01-09T00:48:27.528Z,85.63
2024-01-09T00:51:02.105Z,85.44
2024-01-09T00:53:30.369Z,85.28
2024-01-09T00:56:00.290Z,85.30
2024-01-09T00:58:29.789Z,85.28
2024-01-09T01:00:56.903Z,85.37
2024-01-09T01:03:26.038Z,85.04
2024-01-09T01:05:52.849Z,85.39
2024-01-09T01:08:19.727Z,85.50
2024-01-09T01:10:46.675Z,85.16
2024-01-09T01:13:13.564Z,85.06
2024-01-09T01:15:43.741Z,85.07
2024-01-09T01:18:10.993Z,84.91
2024-01-09T01:20:41.210Z,84.77
2024-01-09T01:23:09.279Z,84.96
2024-01-09T01:25:39.126Z,85.03
2024-01-09T01:28:15.098Z,84.55
2024-01-09T01:30:44.583Z,84.57
2024-01-09T01:33:15.005Z,84.43
2024-01-09T01:35:44.782Z,84.02
2024-01-09T01:40:57.312Z,84.10
2024-01-09T01:46:06.320Z,84.06
2024-01-09T01:48:35.192Z,84.21
2024-01-09T01:51:05.631Z,83.90
2024-01-09T01:53:35.381Z,84.18
2024-01-09T01:56:14.956Z,84.02
2024-01-09T01:58:46.869Z,83.94
2024-01-09T02:01:19.199Z,83.77
2024-01-09T02:03:46.470Z,84.15
2024-01-09T02:06:18.732Z,83.97
2024-01-09T02:09:01.073Z,84.03
2024-01-09T02:11:29.787Z,84.15
2024-01-09T02:13:56.626Z,84.06
2024-01-09T02:16:23.645Z,83.65
2024-01-09T02:18:50.862Z,83.81
2024-01-09T02:21:23.703Z,83.74
2024-01-09T02:23:50.676Z,83.58
2024-01-09T02:26:39.590Z,83.55
2024-01-09T02:29:13.923Z,83.78
2024-01-09T02:31:43.544Z,83.94
2024-01-09T02:34:15.205Z,83.98
2024-01-09T02:36:44.999Z,84.03
2024-01-09T02:39:14.899Z,83.97
2024-01-09T02:41:41.721Z,83.77
2024-01-09T02:44:08.919Z,83.72
2024-01-09T02:46:45.809Z,83.75
2024-01-09T02:49:23.053Z,83.81
2024-01-09T02:51:53.108Z,83.82
2024-01-09T02:54:19.696Z,83.90
2024-01-09T02:56:52.320Z,83.75
2024-01-09T02:59:21.662Z,83.87
2024-01-09T03:01:48.892Z,84.21
2024-01-09T03:04:18.775Z,83.79
2024-01-09T03:06:45.467Z,83.64
2024-01-09T03:09:12.701Z,83.70
2024-01-09T03:11:41.857Z,83.65
2024-01-09T03:14:08.506Z,83.69
2024-01-09T03:16:35.715Z,83.57
2024-01-09T03:19:02.430Z,83.62
2024-01-09T03:21:29.134Z,83.66
2024-01-09T03:23:56.846Z,83.42
2024-01-09T03:26:33.646Z,83.19
2024-01-09T03:29:01.471Z,82.92
2024-01-09T03:31:37.606Z,83.40
2024-01-09T03:34:04.407Z,83.56
2024-01-09T03:36:35.441Z,83.21
2024-01-09T03:39:02.091Z,83.19
2024-01-09T03:41:28.882Z,83.05
2024-01-09T03:43:55.784Z,83.01
2024-01-09T03:46:22.286Z,82.75
2024-01-09T03:48:49.406Z,82.93
2024-01-09T03:51:18.738Z,82.81
2024-01-09T03:53:45.423Z,82.92
2024-01-09T03:56:12.225Z,82.92
2024-01-09T03:58:38.936Z,83.38
2024-01-09T04:01:09.420Z,83.11
2024-01-09T04:03:46.838Z,82.62
2024-01-09T04:06:13.679Z,82.99
2024-01-09T04:08:41.754Z,82.90
2024-01-09T04:11:09.359Z,83.06
2024-01-09T04:13:36.048Z,82.72
2024-01-09T04:16:05.789Z,82.95
2024-01-09T04:18:37.177Z,83.12
2024-01-09T04:21:07.878Z,83.12
2024-01-09T04:23:39.806Z,83.02
2024-01-09T04:26:09.181Z,82.77
2024-01-09T04:28:39.247Z,82.78
2024-01-09T04:31:09.012Z,82.68
2024-01-09T04:33:35.844Z,82.21
2024-01-09T04:36:11.114Z,82.28
2024-01-09T04:38:40.516Z,82.90
2024-01-09T04:41:22.542Z,82.66
2024-01-09T04:43:49.282Z,82.63
2024-01-09T04:46:15.943Z,82.25
2024-01-09T04:48:42.818Z,82.46
2024-01-09T04:51:09.550Z,82.23
2024-01-09T04:53:36.296Z,82.44
2024-01-09T04:56:03.204Z,82.24
2024-01-09T04:58:30.999Z,82.20
2024-01-09T05:00:58.023Z,82.06
2024-01-09T05:03:24.950Z,82.01
2024-01-09T05:05:52.207Z,81.92
2024-01-09T05:08:19.173Z,81.81
2024-01-09T05:10:45.928Z,81.56
2024-01-09T05:13:12.635Z,81.92
2024-01-09T05:15:39.347Z,81.71
2024-01-09T05:18:06.273Z,81.98
2024-01-09T05:20:33.056Z,82.48
2024-01-09T05:22:59.788Z,82.27
2024-01-09T05:25:26.590Z,82.41
2024-01-09T05:27:53.373Z,81.92
2024-01-09T05:30:20.340Z,82.20
2024-01-09T05:32:47.182Z,82.23
2024-01-09T05:35:14.250Z,82.42
2024-01-09T05:37:41.106Z,82.30
2024-01-09T05:40:08.674Z,82.52
2024-01-09T05:42:35.383Z,82.66
2024-01-09T05:45:02.303Z,82.44
2024-01-09T05:47:29.069Z,82.25
2024-01-09T05:49:55.806Z,82.58
2024-01-09T05:52:22.969Z,82.99
2024-01-09T05:54:49.626Z,82.87
2024-01-09T05:57:16.454Z,83.30
2024-01-09T05:59:43.177Z,83.56
2024-01-09T06:02:10.072Z,83.86
2024-01-09T06:04:36.828Z,84.42
2024-01-09T06:07:03.780Z,84.35
2024-01-09T06:09:30.494Z,84.34
2024-01-09T06:11:57.208Z,84.64
2024-01-09T06:14:23.932Z,85.02
2024-01-09T06:16:50.681Z,85.23
2024-01-09T06:19:17.517Z,85.18
2024-01-09T06:21:44.316Z,85.13
2024-01-09T06:24:11.015Z,85.35
2024-01-09T06:26:37.770Z,85.85
2024-01-09T06:29:06.599Z,85.95
2024-01-09T06:31:33.815Z,87.06
2024-01-09T06:34:00.614Z,87.05
2024-01-09T06:36:30.277Z,86.81
2024-01-09T06:38:57.975Z,86.61
2024-01-09T06:41:24.740Z,86.68
2024-01-09T06:43:51.950Z,86.80
2024-01-09T06:46:18.698Z,87.16
2024-01-09T06:48:45.712Z,87.20
2024-01-09T06:51:13.773Z,87.08
2024-01-09T06:53:40.564Z,86.95
2024-01-09T06:56:07.274Z,87.31
2024-01-09T06:58:33.928Z,87.43
2024-01-09T07:01:00.822Z,87.80
2024-01-09T07:03:27.573Z,88.05
2024-01-09T07:05:54.568Z,87.91
2024-01-09T07:08:21.597Z,88.26
2024-01-09T07:10:48.355Z,87.90
2024-01-09T07:13:15.097Z,88.24
2024-01-09T07:15:42.319Z,88.11
2024-01-09T07:18:09.307Z,88.40
2024-01-09T07:20:36.124Z,88.26
2024-01-09T07:23:09.839Z,87.94
2024-01-09T07:25:43.651Z,88.03
2024-01-09T07:28:10.327Z,87.74
2024-01-09T07:30:38.220Z,87.52
2024-01-09T07:33:05.411Z,87.19
2024-01-09T07:35:35.615Z,87.48
2024-01-09T07:38:02.520Z,87.31
2024-01-09T07:40:29.225Z,87.30
2024-01-09T07:43:01.195Z,87.11
2024-01-09T07:45:30.126Z,86.82
2024-01-09T07:47:57.266Z,86.48
2024-01-09T07:50:24.093Z,86.23
2024-01-09T07:52:50.833Z,86.36
2024-01-09T07:55:17.910Z,86.42
2024-01-09T07:57:44.620Z,86.32
2024-01-09T08:00:11.956Z,86.27
2024-01-09T08:02:38.693Z,86.11
2024-01-09T08:05:05.933Z,85.81
2024-01-09T08:07:32.662Z,86.00
2024-01-09T08:09:59.666Z,86.10
2024-01-09T08:12:26.714Z,85.92
2024-01-09T08:14:54.470Z,85.57
2024-01-09T08:17:22.199Z,85.73
2024-01-09T08:19:48.893Z,85.65
2024-01-09T08:22:15.801Z,85.64
2024-01-09T08:24:42.473Z,85.97
2024-01-09T08:27:09.008Z,85.87
2024-01-09T08:29:35.536Z,85.84
2024-01-09T08:32:03.297Z,86.12
2024-01-09T08:34:30.057Z,86.75
2024-01-09T08:36:58.121Z,86.82
2024-01-09T08:39:25.087Z,87.03
2024-01-09T08:41:51.698Z,86.80
2024-01-09T08:44:18.697Z,87.15
2024-01-09T08:46:46.003Z,87.32
2024-01-09T08:49:14.107Z,87.41
2024-01-09T08:51:40.814Z,87.34
2024-01-09T08:54:08.714Z,87.80
2024-01-09T08:56:36.158Z,87.51
2024-01-09T08:59:02.936Z,87.72
2024-01-09T09:01:31.769Z,87.95
2024-01-09T09:03:58.348Z,88.31
2024-01-09T09:06:25.003Z,88.28
2024-01-09T09:08:51.722Z,88.13
2024-01-09T09:11:19.177Z,88.41
2024-01-09T09:13:45.855Z,88.37
2024-01-09T09:16:12.609Z,88.42
2024-01-09T09:18:39.484Z,88.44
2024-01-09T09:21:06.394Z,88.56
2024-01-09T09:23:33.367Z,88.46
2024-01-09T09:26:00.451Z,88.66
2024-01-09T09:28:33.804Z,88.65
2024-01-09T09:31:07.517Z,88.54
2024-01-09T09:33:35.034Z,88.87
2024-01-09T09:36:06.368Z,89.24
2024-01-09T09:38:35.137Z,88.95
2024-01-09T09:41:08.139Z,89.09
2024-01-09T09:43:38.278Z,88.68
2024-01-09T09:46:12.676Z,88.82
2024-01-09T09:48:40.349Z,88.96
2024-01-09T09:51:08.754Z,89.06
2024-01-09T09:53:37.115Z,88.75
2024-01-09T09:56:04.095Z,88.04
2024-01-09T09:58:33.014Z,88.84
2024-01-09T10:01:00.788Z,88.67
2024-01-09T10:03:35.239Z,88.81
2024-01-09T10:06:06.077Z,89.11
2024-01-09T10:08:35.716Z,88.92
2024-01-09T10:11:02.568Z,88.43
2024-01-09T10:13:29.424Z,88.44
2024-01-09T10:16:00.325Z,88.48
2024-01-09T10:18:30.491Z,88.02
2024-01-09T10:20:58.585Z,87.72
2024-01-09T10:23:26.086Z,87.43
2024-01-09T10:25:53.480Z,87.46
2024-01-09T10:28:20.226Z,87.35
2024-01-09T10:30:47.280Z,87.74
2024-01-09T10:33:15.082Z,87.55
2024-01-09T10:35:42.359Z,87.40
2024-01-09T10:38:10.423Z,87.74
2024-01-09T10:40:38.339Z,86.87
2024-01-09T10:43:05.188Z,87.45
2024-01-09T10:45:32.997Z,87.19
2024-01-09T10:48:00.153Z,87.45
2024-01-09T10:50:27.301Z,87.12
2024-01-09T11:01:41.720Z,84.15
2024-01-09T11:04:09.394Z,83.80
2024-01-09T11:06:38.476Z,84.46
2024-01-09T11:09:06.740Z,84.94
2024-01-09T11:11:37.323Z,84.93
2024-01-09T11:14:10.348Z,85.26
2024-01-09T11:16:41.462Z,85.22
2024-01-09T11:19:10.430Z,85.28
2024-01-09T11:21:37.213Z,85.81
2024-01-09T11:24:04.860Z,85.59
2024-01-09T11:26:37.850Z,85.78
2024-01-09T11:29:05.754Z,85.75
2024-01-09T11:31:34.116Z,86.00
2024-01-09T11:34:03.505Z,85.71
2024-01-09T11:36:39.302Z,85.61
2024-01-09T11:39:08.852Z,85.27
2024-01-09T11:41:37.495Z,84.25
2024-01-09T11:44:05.523Z,84.25
2024-01-09T11:46:35.478Z,83.81
2024-01-09T11:49:03.845Z,83.77
2024-01-09T11:51:32.527Z,83.74
2024-01-09T11:54:02.558Z,83.18
2024-01-09T11:56:29.896Z,82.79
2024-01-09T11:58:57.965Z,82.65
2024-01-09T12:01:25.233Z,82.53
2024-01-09T12:03:56.024Z,81.29
2024-01-09T12:06:24.671Z,80.50
2024-01-09T12:08:53.056Z,80.60
2024-01-09T12:11:20.066Z,80.34
2024-01-09T12:13:46.929Z,78.59
2024-01-09T12:16:20.649Z,77.85
2024-01-09T12:18:56.622Z,78.11
2024-01-09T12:21:27.296Z,76.49
2024-01-09T12:24:17.908Z,76.92
2024-01-09T12:26:44.979Z,77.04
2024-01-09T12:29:11.979Z,77.15
2024-01-09T12:31:39.076Z,77.03
2024-01-09T12:34:07.048Z,77.75
2024-01-09T12:36:35.436Z,76.43
2024-01-09T12:39:03.016Z,75.40
2024-01-09T12:41:30.780Z,74.72
2024-01-09T12:44:08.897Z,75.01
2024-01-09T12:46:35.655Z,75.81
2024-01-09T12:49:03.658Z,75.95
2024-01-09T12:51:33.657Z,75.76
2024-01-09T12:54:00.690Z,75.78
2024-01-09T12:56:28.476Z,76.20
2024-01-09T12:58:56.012Z,76.35
2024-01-09T13:01:27.756Z,75.70
2024-01-09T13:03:55.192Z,76.41
2024-01-09T13:06:22.142Z,76.64
2024-01-09T13:08:48.929Z,76.50
2024-01-09T13:11:15.779Z,76.87
2024-01-09T13:13:46.814Z,77.61
2024-01-09T13:16:13.702Z,77.48
2024-01-09T13:18:40.626Z,76.98
2024-01-09T13:21:07.937Z,76.67
2024-01-09T13:26:05.412Z,75.28
2024-01-09T13:28:33.161Z,75.51
2024-01-09T13:31:00.606Z,75.85
2024-01-09T13:33:28.028Z,76.07
2024-01-09T13:35:56.282Z,76.20
2024-01-09T13:38:23.017Z,76.70
2024-01-09T13:40:50.287Z,76.61
2024-01-09T13:43:17.908Z,76.84
2024-01-09T13:45:45.036Z,76.96
2024-01-09T13:48:13.635Z,77.11
2024-01-09T13:53:11.004Z,76.10
2024-01-09T13:55:37.750Z,76.01
2024-01-09T13:58:05.471Z,76.44
2024-01-09T14:00:32.168Z,76.43
2024-01-09T14:02:59.537Z,76.48
2024-01-09T14:05:26.298Z,76.75
2024-01-09T14:07:52.953Z,77.03
2024-01-09T14:10:19.640Z,77.28
2024-01-09T14:12:46.192Z,77.66
2024-01-09T14:15:14.729Z,77.61
2024-01-09T14:17:44.318Z,77.65
2024-01-09T14:20:12.721Z,77.70
2024-01-09T14:22:39.966Z,77.77
2024-01-09T14:25:06.664Z,77.45
2024-01-09T14:27:33.806Z,77.20
2024-01-09T14:30:00.569Z,77.57
2024-01-09T14:32:27.919Z,77.25
2024-01-09T14:34:54.842Z,76.80
2024-01-09T14:37:21.501Z,76.93
2024-01-09T14:39:48.041Z,77.06
2024-01-09T14:42:14.588Z,76.87
2024-01-09T14:44:41.140Z,76.79
2024-01-09T14:47:07.790Z,77.08
2024-01-09T14:49:34.443Z,77.51
2024-01-09T14:52:01.048Z,77.52
2024-01-09T14:54:29.139Z,77.72
2024-01-09T14:56:56.484Z,77.78
2024-01-09T14:59:23.133Z,77.76
2024-01-09T15:01:53.201Z,78.02
2024-01-09T15:04:20.420Z,78.00
2024-01-09T15:06:48.867Z,78.29
2024-01-09T15:09:15.667Z,77.93
2024-01-09T15:11:42.510Z,78.53
2024-01-09T15:14:09.251Z,78.47
2024-01-09T15:16:35.953Z,78.47
2024-01-09T15:19:03.660Z,78.53
2024-01-09T15:21:33.968Z,78.57
2024-01-09T15:24:00.593Z,78.58
2024-01-09T15:26:27.163Z,78.72
2024-01-09T15:28:53.874Z,79.00
2024-01-09T15:31:21.977Z,78.74
2024-01-09T15:33:49.479Z,79.03
2024-01-09T15:36:17.201Z,78.71
2024-01-09T15:38:44.838Z,78.84
2024-01-09T15:41:12.650Z,78.88
2024-01-09T15:43:39.531Z,78.95
2024-01-09T15:46:07.880Z,79.02
2024-01-09T15:48:37.255Z,78.98
2024-01-09T15:51:05.780Z,79.16
2024-01-09T15:53:34.632Z,79.13
2024-01-09T15:56:01.215Z,79.11
2024-01-09T15:58:28.137Z,79.33
2024-01-09T16:00:54.866Z,79.43
2024-01-09T16:03:21.779Z,79.57
2024-01-09T16:05:48.603Z,79.44
2024-01-09T16:08:16.770Z,79.67
2024-01-09T16:10:43.993Z,79.54
2024-01-09T16:13:10.688Z,79.59
2024-01-09T16:15:38.613Z,79.49
2024-01-09T16:18:05.874Z,79.35
2024-01-09T16:20:33.250Z,79.42
2024-01-09T16:23:00.035Z,79.80
2024-01-09T16:25:26.829Z,79.91
2024-01-09T16:27:56.149Z,79.67
2024-01-09T16:30:23.333Z,79.89
2024-01-09T16:32:50.153Z,79.96
2024-01-09T16:35:16.841Z,79.78
2024-01-09T16:37:43.460Z,79.89
2024-01-09T16:40:12.598Z,79.87
2024-01-09T16:42:39.323Z,79.99
2024-01-09T16:45:06.338Z,79.73
2024-01-09T16:47:33.067Z,80.07
2024-01-09T16:49:59.796Z,79.75
2024-01-09T16:52:26.495Z,80.25
2024-01-09T16:54:53.560Z,80.08
2024-01-09T16:57:20.116Z,80.06
2024-01-09T16:59:46.686Z,80.19
2024-01-09T17:02:13.866Z,80.16
2024-01-09T17:04:43.548Z,80.00
2024-01-09T17:07:10.201Z,80.28
2024-01-09T17:09:41.569Z,80.55
2024-01-09T17:12:08.389Z,80.47
2024-01-09T17:14:34.946Z,80.29
2024-01-09T17:17:01.517Z,80.56
2024-01-09T17:19:29.233Z,80.68
2024-01-09T17:21:58.971Z,80.57
2024-01-09T17:24:27.878Z,80.56
2024-01-09T17:26:55.640Z,80.57
2024-01-09T17:29:22.380Z,80.45
2024-01-09T17:31:49.044Z,80.61
2024-01-09T17:34:15.677Z,80.64
2024-01-09T17:36:46.128Z,80.87
2024-01-09T17:39:15.117Z,80.60
2024-01-09T17:41:42.083Z,80.94
2024-01-09T17:44:08.717Z,80.53
2024-01-09T17:46:39.748Z,80.41
2024-01-09T17:49:06.546Z,80.40
2024-01-09T17:51:33.352Z,80.46
2024-01-09T17:53:59.864Z,80.39
2024-01-09T17:56:26.725Z,80.60
2024-01-09T17:58:53.276Z,80.88
2024-01-09T18:01:20.265Z,80.71
2024-01-09T18:03:46.787Z,80.54
2024-01-09T18:06:13.376Z,80.78
2024-01-09T18:08:39.972Z,80.96
2024-01-09T18:11:06.569Z,80.77
2024-01-09T18:13:33.190Z,81.07
2024-01-09T18:15:59.820Z,81.23
2024-01-09T18:18:30.013Z,81.27
2024-01-09T18:20:57.114Z,81.38
2024-01-09T18:23:23.683Z,81.55
2024-01-09T18:25:50.225Z,81.43
2024-01-09T18:28:26.395Z,81.94
2024-01-09T18:30:57.398Z,81.82
2024-01-09T18:33:24.319Z,81.87
2024-01-09T18:35:54.366Z,81.58
2024-01-09T18:38:22.029Z,81.80
2024-01-09T18:40:48.885Z,81.99
2024-01-09T18:43:15.609Z,81.74
2024-01-09T18:45:43.273Z,81.71
2024-01-09T18:48:15.045Z,81.96
2024-01-09T18:50:41.756Z,81.58
2024-01-09T18:53:10.554Z,81.82
2024-01-09T18:55:37.178Z,82.02
2024-01-09T18:58:03.880Z,81.94
2024-01-09T19:00:30.544Z,82.22
2024-01-09T19:02:57.154Z,81.91
2024-01-09T19:05:23.797Z,81.73
2024-01-09T19:07:50.622Z,81.65
2024-01-09T19:10:17.192Z,81.52
2024-01-09T19:12:43.740Z,81.63
2024-01-09T19:15:10.671Z,81.45
2024-01-09T19:17:37.427Z,81.40
2024-01-09T19:20:04.204Z,81.74
2024-01-09T19:22:31.112Z,81.71
2024-01-09T19:24:57.671Z,81.56
2024-01-09T19:27:24.201Z,81.54
2024-01-09T19:29:50.805Z,81.36
2024-01-09T19:32:18.005Z,81.60
2024-01-09T19:34:44.680Z,81.63
2024-01-09T19:37:11.189Z,81.48
2024-01-09T19:39:38.127Z,81.31
2024-01-09T19:42:04.945Z,81.22
2024-01-09T19:44:32.392Z,81.00
2024-01-09T19:46:59.485Z,80.87
2024-01-09T19:49:28.574Z,81.04
2024-01-09T19:51:55.335Z,80.68
2024-01-09T19:54:21.910Z,80.85
2024-01-09T19:56:48.394Z,80.95
2024-01-09T19:59:14.979Z,81.17
2024-01-09T20:01:44.813Z,81.19
2024-01-09T20:04:11.455Z,81.03
2024-01-09T20:06:40.463Z,81.17
2024-01-09T20:09:10.503Z,81.14
2024-01-09T20:11:37.353Z,80.95
2024-01-09T20:14:05.821Z,81.20
2024-01-09T20:16:32.695Z,80.95
2024-01-09T20:19:00.720Z,80.95
2024-01-09T20:21:28.575Z,81.45
2024-01-09T20:23:55.212Z,81.16
2024-01-09T20:26:28.363Z,81.29
2024-01-09T20:28:56.304Z,81.18
2024-01-09T20:31:26.313Z,81.36
2024-01-09T20:33:54.410Z,81.23
2024-01-09T20:36:23.340Z,80.96
2024-01-09T20:38:52.895Z,81.02
2024-01-09T20:41:19.496Z,80.73
2024-01-09T20:43:46.054Z,80.66
2024-01-09T20:46:12.556Z,80.67
2024-01-09T20:48:39.302Z,80.82
2024-01-09T20:51:08.156Z,80.64
2024-01-09T20:53:35.419Z,80.78
2024-01-09T20:56:03.726Z,80.72
2024-01-09T20:58:32.580Z,80.85
2024-01-09T21:01:00.423Z,80.82
2024-01-09T21:03:29.254Z,80.70
2024-01-09T21:05:56.298Z,80.80
2024-01-09T21:08:23.215Z,80.85
2024-01-09T21:10:50.262Z,80.53
2024-01-09T21:13:17.274Z,80.48
2024-01-09T21:15:44.118Z,80.72
2024-01-09T21:18:12.198Z,81.11
2024-01-09T21:20:39.191Z,80.83
2024-01-09T21:23:05.809Z,80.73
2024-01-09T21:25:32.484Z,80.94
2024-01-09T21:27:59.074Z,81.00
2024-01-09T21:30:25.717Z,81.27
2024-01-09T21:32:52.902Z,81.07
2024-01-09T21:35:19.768Z,81.10
2024-01-09T21:37:48.046Z,81.24
2024-01-09T21:40:17.211Z,81.50
2024-01-09T21:42:43.721Z,81.89
2024-01-09T21:45:11.308Z,81.92
2024-01-09T21:47:44.523Z,81.68
2024-01-09T21:50:12.195Z,81.89
2024-01-09T21:52:39.150Z,82.02
2024-01-09T21:55:07.863Z,81.79
2024-01-09T21:57:34.392Z,81.80
2024-01-09T22:00:00.976Z,82.22
2024-01-09T22:02:27.651Z,82.45
2024-01-09T22:04:55.032Z,82.60
2024-01-09T22:07:21.651Z,82.46
2024-01-09T22:09:48.302Z,82.92
2024-01-09T22:12:14.864Z,83.25
2024-01-09T22:14:41.479Z,83.45
2024-01-09T22:17:08.204Z,83.48
2024-01-09T22:19:38.716Z,83.75
2024-01-09T22:22:05.782Z,83.93
2024-01-09T22:24:32.319Z,84.32
2024-01-09T22:26:58.808Z,84.53
2024-01-09T22:29:25.429Z,84.67
2024-01-09T22:31:52.810Z,84.85
2024-01-09T22:34:19.486Z,84.84
2024-01-09T22:36:46.590Z,85.17
2024-01-09T22:39:13.142Z,85.15
2024-01-09T22:41:39.633Z,85.15
2024-01-09T22:44:06.931Z,85.31
2024-01-09T22:46:33.591Z,84.98
2024-01-09T22:49:00.210Z,85.25
2024-01-09T22:51:26.811Z,85.21
2024-01-09T22:53:53.344Z,84.84
2024-01-09T22:56:19.904Z,85.01
2024-01-09T22:58:46.627Z,85.26
2024-01-09T23:01:14.204Z,85.37
2024-01-09T23:03:40.892Z,85.71
2024-01-09T23:06:07.472Z,85.53
2024-01-09T23:08:34.060Z,85.97
2024-01-09T23:11:00.824Z,86.10
2024-01-09T23:13:27.563Z,85.59
2024-01-09T23:15:54.278Z,85.68
2024-01-09T23:18:21.585Z,85.94
2024-01-09T23:20:48.433Z,86.24
2024-01-09T23:23:15.648Z,86.54
2024-01-09T23:25:43.401Z,86.74
2024-01-09T23:28:09.906Z,87.12
2024-01-09T23:30:36.416Z,87.15
2024-01-09T23:33:03.099Z,87.47
2024-01-09T23:35:29.676Z,87.75
2024-01-09T23:37:56.265Z,88.07
2024-01-09T23:40:22.857Z,88.27
2024-01-09T23:42:49.340Z,88.46
2024-01-09T23:45:15.966Z,88.83
2024-01-09T23:47:42.564Z,88.87
2024-01-09T23:50:09.512Z,89.34
2024-01-09T23:52:36.281Z,89.66
2024-01-09T23:55:04.220Z,89.56
2024-01-09T23:57:30.723Z,89.88
2024-01-09T23:59:58.073Z,90.09
